Time;durP1;ratioP1;P1;durP2;ratioP2;P2;SDS_P1;SDS_P2;PMS_P1;PMS_P2;Temp;Humidity;BMP_temperature;BMP_pressure;BME280_temperature;BME280_humidity;BME280_pressure;Samples;Min_cycle;Max_cycle;Signal;HPM_P1;HPM_P2
2023/05/13 00:01:25;;;;;;;10.60;4.82;;;;;;;7.78;80.68;100649.59;5007183;28;20034;-17
2023/05/13 00:03:51;;;;;;;7.78;4.57;;;;;;;7.71;79.74;100644.22;5007253;28;20032;-18
2023/05/13 00:06:16;;;;;;;8.65;4.47;;;;;;;7.62;80.36;100654.13;5006724;28;20434;-18
2023/05/13 00:08:42;;;;;;;7.53;4.38;;;;;;;7.77;79.99;100645.31;5006659;28;20060;-18
2023/05/13 00:11:07;;;;;;;9.68;4.25;;;;;;;7.95;79.10;100648.38;5006726;28;20046;-18
2023/05/13 00:13:33;;;;;;;7.65;4.40;;;;;;;7.87;80.06;100648.50;5006686;28;20394;-18
2023/05/13 00:15:58;;;;;;;8.70;4.55;;;;;;;7.98;78.49;100652.50;5006869;28;20105;-18
2023/05/13 00:18:24;;;;;;;8.20;4.80;;;;;;;8.07;78.41;100664.66;5006497;28;20092;-22
2023/05/13 00:20:49;;;;;;;10.48;5.13;;;;;;;8.21;76.71;100668.25;5006760;28;20030;-20
2023/05/13 00:23:15;;;;;;;8.85;4.38;;;;;;;8.16;77.36;100668.84;5006472;28;20140;-18
2023/05/13 00:25:40;;;;;;;7.68;4.30;;;;;;;8.35;75.13;100670.03;5006591;28;20030;-18
2023/05/13 00:28:06;;;;;;;9.82;4.70;;;;;;;8.26;75.02;100676.50;5006290;28;20030;-22
2023/05/13 00:30:32;;;;;;;7.18;4.35;;;;;;;8.21;75.31;100679.75;5006343;28;20037;-18
2023/05/13 00:32:57;;;;;;;9.15;4.85;;;;;;;8.18;76.98;100674.78;5006293;28;20057;-18
2023/05/13 00:35:23;;;;;;;7.50;4.10;;;;;;;7.96;75.51;100660.66;5006277;28;20119;-18
2023/05/13 00:37:48;;;;;;;7.82;4.38;;;;;;;7.92;77.16;100669.19;5006317;28;20033;-18
2023/05/13 00:40:21;;;;;;;9.30;4.68;;;;;;;8.27;75.06;100675.47;5006147;28;20073;-18
2023/05/13 00:42:47;;;;;;;7.35;3.97;;;;;;;7.56;78.42;100681.41;5005606;28;20029;-20
2023/05/13 00:45:13;;;;;;;8.95;4.63;;;;;;;7.90;77.42;100677.31;5005989;28;20030;-19
2023/05/13 00:47:39;;;;;;;7.50;4.05;;;;;;;7.83;77.54;100681.75;5006295;28;20124;-19
2023/05/13 00:50:06;;;;;;;7.25;4.50;;;;;;;7.84;77.72;100678.88;5005563;28;20022;-18
2023/05/13 00:52:32;;;;;;;7.55;3.97;;;;;;;7.68;78.36;100683.59;5005538;28;20034;-18
2023/05/13 00:54:58;;;;;;;7.53;3.97;;;;;;;7.56;79.26;100692.03;5005892;28;20041;-19
2023/05/13 00:57:23;;;;;;;7.95;4.18;;;;;;;7.61;79.16;100683.50;5005985;28;20464;-19
2023/05/13 00:59:49;;;;;;;6.68;4.68;;;;;;;7.44;80.09;100678.38;5005764;28;20120;-19
2023/05/13 01:02:38;;;;;;;10.25;4.70;;;;;;;7.40;81.13;100692.22;5005893;28;20034;-19
2023/05/13 01:05:33;;;;;;;8.32;3.83;;;;;;;7.38;79.86;100688.91;5005792;28;20026;-17
2023/05/13 01:08:19;;;;;;;7.95;4.13;;;;;;;7.28;79.73;100662.66;5005627;28;20446;-18
2023/05/13 01:11:02;;;;;;;8.65;4.40;;;;;;;7.47;80.30;100693.09;5005779;28;20041;-18
2023/05/13 01:13:32;;;;;;;6.90;4.22;;;;;;;7.40;80.72;100697.50;5005505;28;20515;-18
2023/05/13 01:15:57;;;;;;;7.97;4.30;;;;;;;7.24;82.22;100691.34;5005656;28;20084;-18
2023/05/13 01:18:30;;;;;;;11.15;4.50;;;;;;;7.31;80.77;100698.59;5005890;28;20029;-18
2023/05/13 01:20:57;;;;;;;9.13;4.35;;;;;;;7.38;81.13;100710.16;5005596;28;20037;-22
2023/05/13 01:23:22;;;;;;;8.48;4.35;;;;;;;7.37;80.64;100713.78;5005762;28;20037;-18
2023/05/13 01:25:49;;;;;;;8.88;4.38;;;;;;;7.44;80.35;100712.06;5005135;28;20022;-18
2023/05/13 01:28:14;;;;;;;11.30;5.28;;;;;;;7.37;80.87;100714.59;5005626;28;20026;-18
2023/05/13 01:30:40;;;;;;;11.80;4.55;;;;;;;7.22;81.94;100722.56;5005198;28;20113;-18
2023/05/13 01:33:06;;;;;;;9.00;4.97;;;;;;;7.16;82.37;100725.13;5005631;28;20026;-18
2023/05/13 01:35:32;;;;;;;8.68;4.30;;;;;;;7.07;83.39;100718.22;5005089;28;20290;-18
2023/05/13 01:37:59;;;;;;;7.95;4.35;;;;;;;6.89;83.02;100702.66;5005489;28;20018;-18
2023/05/13 01:40:25;;;;;;;8.07;4.78;;;;;;;6.83;83.42;100702.34;5005347;28;20021;-18
2023/05/13 01:42:50;;;;;;;10.10;5.05;;;;;;;6.92;85.12;100718.19;5005186;28;20034;-17
2023/05/13 01:45:16;;;;;;;6.10;4.22;;;;;;;6.79;85.33;100718.81;5005120;28;20030;-18
2023/05/13 01:47:41;;;;;;;7.10;4.53;;;;;;;6.76;85.25;100705.88;5005016;28;21810;-18
2023/05/13 01:50:07;;;;;;;7.05;4.93;;;;;;;6.82;84.59;100727.22;5005446;28;20029;-18
2023/05/13 01:52:33;;;;;;;14.68;5.32;;;;;;;6.84;84.64;100727.88;5001333;28;20030;-18
2023/05/13 01:54:58;;;;;;;7.95;4.47;;;;;;;6.87;83.97;100723.22;4992312;28;20083;-17
2023/05/13 01:57:24;;;;;;;8.93;5.22;;;;;;;6.27;87.48;100733.53;4992024;28;20030;-18
2023/05/13 01:59:50;;;;;;;8.00;5.20;;;;;;;6.17;90.10;100727.63;4992097;28;20079;-18
2023/05/13 02:02:15;;;;;;;7.93;4.90;;;;;;;6.54;87.88;100742.84;4991779;28;20030;-18
2023/05/13 02:04:40;;;;;;;8.90;4.70;;;;;;;6.68;86.02;100724.50;4991952;28;20022;-18
2023/05/13 02:07:06;;;;;;;7.80;4.18;;;;;;;6.72;85.79;100731.94;4991775;28;20034;-18
2023/05/13 02:09:31;;;;;;;8.90;4.35;;;;;;;6.71;86.57;100740.06;4991883;28;20124;-18
2023/05/13 02:11:57;;;;;;;9.70;4.88;;;;;;;6.18;89.64;100734.59;4991984;28;20462;-21
2023/05/13 02:14:22;;;;;;;7.00;4.22;;;;;;;5.67;91.46;100728.81;4992003;28;20112;-20
2023/05/13 02:16:48;;;;;;;8.02;4.60;;;;;;;6.22;89.30;100735.91;4992379;28;20647;-17
2023/05/13 02:19:13;;;;;;;7.18;4.40;;;;;;;6.30;88.16;100727.91;4991963;28;20476;-18
2023/05/13 02:21:39;;;;;;;7.43;4.65;;;;;;;6.23;88.21;100742.81;4991898;28;20022;-18
2023/05/13 02:24:05;;;;;;;8.30;5.40;;;;;;;5.90;90.81;100745.59;4991948;28;20030;-17
2023/05/13 02:26:30;;;;;;;7.05;4.75;;;;;;;5.83;91.97;100731.41;4991632;28;20026;-20
2023/05/13 02:28:56;;;;;;;8.23;4.70;;;;;;;5.89;92.27;100749.25;4992195;28;20029;-19
2023/05/13 02:31:21;;;;;;;7.47;4.95;;;;;;;6.07;92.41;100737.63;4991409;28;20480;-19
2023/05/13 02:33:46;;;;;;;8.30;5.05;;;;;;;5.93;92.80;100745.28;4991868;28;20039;-18
2023/05/13 02:36:12;;;;;;;9.13;5.38;;;;;;;5.64;94.69;100733.47;4991601;28;20523;-21
2023/05/13 02:38:37;;;;;;;8.35;4.68;;;;;;;5.65;94.65;100739.56;4991718;28;20509;-18
2023/05/13 02:41:03;;;;;;;6.80;4.43;;;;;;;5.99;92.95;100752.56;4991431;28;20026;-18
2023/05/13 02:43:28;;;;;;;7.32;4.68;;;;;;;6.10;91.10;100737.28;4991671;28;20045;-19
2023/05/13 02:45:54;;;;;;;7.40;4.63;;;;;;;5.66;94.41;100743.03;4991774;28;20030;-19
2023/05/13 02:48:19;;;;;;;8.20;4.20;;;;;;;5.90;93.07;100736.84;4991487;28;20494;-18
2023/05/13 02:50:45;;;;;;;8.88;5.57;;;;;;;6.00;92.04;100738.31;4991649;28;20038;-20
2023/05/13 02:53:10;;;;;;;5.93;4.10;;;;;;;5.63;94.95;100736.28;4998428;28;20506;-19
2023/05/13 02:55:36;;;;;;;8.27;4.78;;;;;;;5.82;94.91;100740.34;5011205;28;20030;-18
2023/05/13 02:58:01;;;;;;;8.10;4.82;;;;;;;6.09;91.72;100733.81;5010785;28;20026;-18
2023/05/13 03:00:27;;;;;;;8.07;4.97;;;;;;;5.64;93.73;100744.03;5011480;28;20030;-18
2023/05/13 03:02:52;;;;;;;6.70;4.63;;;;;;;5.59;94.35;100741.06;5011201;28;20038;-21
2023/05/13 03:05:18;;;;;;;7.65;4.47;;;;;;;5.47;94.78;100723.09;5008326;28;20034;-18
2023/05/13 03:07:43;;;;;;;10.25;5.10;;;;;;;5.83;92.47;100755.22;5008009;28;20127;-18
2023/05/13 03:10:09;;;;;;;6.30;4.25;;;;;;;6.02;91.25;100754.84;5007974;28;20026;-18
2023/05/13 03:12:35;;;;;;;6.90;4.75;;;;;;;5.50;94.27;100757.97;5007653;28;20081;-18
2023/05/13 03:15:00;;;;;;;9.20;4.90;;;;;;;5.44;94.55;100767.41;5007918;28;20527;-18
2023/05/13 03:17:29;;;;;;;7.90;4.68;;;;;;;5.72;92.25;100782.06;5008102;28;20422;-18
2023/05/13 03:19:55;;;;;;;9.57;5.07;;;;;;;5.86;91.19;100784.00;5007923;28;20026;-18
2023/05/13 03:22:20;;;;;;;7.55;4.93;;;;;;;5.73;92.67;100794.31;5007787;28;20037;-18
2023/05/13 03:24:45;;;;;;;10.20;5.15;;;;;;;6.27;90.48;100797.09;5007426;28;20026;-18
2023/05/13 03:27:11;;;;;;;8.40;5.20;;;;;;;6.12;91.40;100793.53;5007687;28;20033;-18
2023/05/13 03:29:36;;;;;;;9.63;5.00;;;;;;;5.82;93.37;100788.81;5007482;28;20037;-18
2023/05/13 03:32:05;;;;;;;8.98;5.28;;;;;;;6.13;92.25;100781.94;5007358;28;20485;-18
2023/05/13 03:34:31;;;;;;;11.80;5.80;;;;;;;6.39;91.57;100785.13;5007687;28;20057;-18
2023/05/13 03:36:56;;;;;;;8.45;5.68;;;;;;;6.24;92.79;100794.81;5007631;28;20065;-18
2023/05/13 03:39:21;;;;;;;9.10;5.47;;;;;;;6.53;91.25;100796.81;5007444;28;20034;-19
2023/05/13 03:41:47;;;;;;;8.77;4.90;;;;;;;6.53;91.60;100796.00;5007200;28;20064;-18
2023/05/13 03:44:12;;;;;;;10.98;5.82;;;;;;;6.44;91.50;100800.53;5007302;28;20077;-18
2023/05/13 03:46:38;;;;;;;15.23;9.30;;;;;;;6.50;90.05;100804.28;5007169;28;20033;-24
2023/05/13 03:49:03;;;;;;;13.15;8.13;;;;;;;6.45;91.30;100804.81;5007054;28;20469;-17
2023/05/13 03:51:30;;;;;;;13.18;8.40;;;;;;;6.04;93.84;100800.50;5007199;28;20049;-18
2023/05/13 03:53:55;;;;;;;10.02;5.28;;;;;;;5.97;95.40;100807.50;5007152;28;20030;-18
2023/05/13 03:56:20;;;;;;;7.97;5.20;;;;;;;6.36;93.87;100808.50;5007146;28;20081;-19
2023/05/13 03:58:46;;;;;;;7.05;5.10;;;;;;;6.31;93.32;100811.66;5006843;28;20037;-19
2023/05/13 04:01:11;;;;;;;12.23;5.68;;;;;;;6.12;94.31;100790.91;5006893;28;20402;-20
2023/05/13 04:03:37;;;;;;;8.43;5.20;;;;;;;6.38;95.12;100806.50;5006842;28;20029;-18
2023/05/13 04:06:02;;;;;;;9.15;5.28;;;;;;;6.36;96.11;100814.63;5006858;28;20026;-18
2023/05/13 04:08:27;;;;;;;9.80;5.32;;;;;;;6.43;95.34;100804.97;5007050;28;20533;-18
2023/05/13 04:10:55;;;;;;;12.50;6.10;;;;;;;6.51;95.84;100798.00;5006317;28;20053;-18
2023/05/13 04:13:20;;;;;;;11.73;6.40;;;;;;;6.52;97.36;100794.34;5006737;28;20106;-18
2023/05/13 04:15:46;;;;;;;10.98;6.38;;;;;;;6.64;97.71;100793.78;5006044;28;20500;-18
2023/05/13 04:18:12;;;;;;;10.60;6.20;;;;;;;6.86;95.92;100811.69;5006249;28;20033;-18
2023/05/13 04:20:38;;;;;;;11.60;6.75;;;;;;;7.38;93.68;100808.31;5006332;28;20477;-18
2023/05/13 04:23:03;;;;;;;10.05;6.50;;;;;;;7.16;94.36;100812.66;5006666;28;20022;-19
2023/05/13 04:25:29;;;;;;;13.70;5.93;;;;;;;7.06;95.43;100807.56;5006343;28;20048;-18
2023/05/13 04:27:54;;;;;;;9.43;6.60;;;;;;;7.25;94.93;100808.91;5006775;28;20048;-18
2023/05/13 04:30:20;;;;;;;9.05;6.35;;;;;;;7.20;94.85;100809.44;5006108;28;20091;-18
2023/05/13 04:32:45;;;;;;;10.32;6.60;;;;;;;7.17;95.55;100801.88;5006074;28;20417;-18
2023/05/13 04:35:11;;;;;;;10.38;6.60;;;;;;;7.34;95.35;100809.69;5006541;28;20026;-18
2023/05/13 04:37:37;;;;;;;12.05;7.63;;;;;;;7.48;94.61;100810.69;5006085;28;20413;-18
2023/05/13 04:40:03;;;;;;;13.30;8.30;;;;;;;7.76;93.88;100822.38;5006202;28;20033;-18
2023/05/13 04:42:28;;;;;;;14.55;8.57;;;;;;;7.73;94.10;100819.28;5006219;28;20053;-18
2023/05/13 04:44:54;;;;;;;13.48;9.30;;;;;;;7.82;93.12;100823.47;5006078;28;20414;-18
2023/05/13 04:47:19;;;;;;;12.45;8.35;;;;;;;7.75;93.85;100828.69;5006008;28;20030;-17
2023/05/13 04:49:44;;;;;;;13.38;8.65;;;;;;;8.07;92.41;100833.84;5005904;28;20033;-17
2023/05/13 04:52:11;;;;;;;11.77;9.02;;;;;;;8.38;91.07;100839.78;5005850;28;20146;-19
2023/05/13 04:54:38;;;;;;;13.75;8.43;;;;;;;8.72;89.79;100849.00;5006214;28;20026;-18
2023/05/13 04:57:04;;;;;;;16.80;9.38;;;;;;;9.07;88.04;100838.50;5005948;28;20509;-18
2023/05/13 04:59:30;;;;;;;17.83;9.00;;;;;;;9.10;87.63;100826.69;5006182;28;20485;-17
2023/05/13 05:01:55;;;;;;;14.05;8.68;;;;;;;9.03;87.72;100827.44;5005864;28;20030;-17
2023/05/13 05:04:20;;;;;;;14.70;8.38;;;;;;;9.05;85.62;100837.88;5005763;28;20037;-18
2023/05/13 05:06:46;;;;;;;13.82;8.68;;;;;;;8.97;87.58;100844.16;5005732;28;20029;-19
2023/05/13 05:09:12;;;;;;;14.85;8.80;;;;;;;9.31;86.16;100849.78;5005783;28;20097;-18
2023/05/13 05:11:37;;;;;;;16.13;8.80;;;;;;;9.68;83.67;100850.50;5005208;28;20073;-18
2023/05/13 05:14:03;;;;;;;12.23;7.97;;;;;;;9.54;86.15;100861.06;5005834;28;20018;-19
2023/05/13 05:16:28;;;;;;;13.40;7.15;;;;;;;9.57;84.88;100852.69;5005890;28;20441;-20
2023/05/13 05:18:53;;;;;;;13.00;7.55;;;;;;;9.85;83.13;100867.84;5005916;28;20037;-18
2023/05/13 05:21:19;;;;;;;11.18;6.55;;;;;;;9.90;82.07;100860.09;5005549;28;20056;-18
2023/05/13 05:23:44;;;;;;;11.57;6.45;;;;;;;9.86;81.07;100849.00;5005397;28;20022;-19
2023/05/13 05:26:10;;;;;;;11.38;6.97;;;;;;;10.12;82.29;100860.84;5005338;28;20026;-18
2023/05/13 05:28:37;;;;;;;10.73;6.60;;;;;;;10.39;79.93;100866.34;5005232;28;20057;-18
2023/05/13 05:31:02;;;;;;;8.55;5.28;;;;;;;10.45;80.46;100871.72;5004993;28;20041;-19
2023/05/13 05:33:28;;;;;;;8.00;5.68;;;;;;;10.53;79.14;100867.25;5005113;28;20030;-18
2023/05/13 05:35:53;;;;;;;8.23;4.88;;;;;;;10.72;77.84;100863.81;5005246;28;20029;-18
2023/05/13 05:38:18;;;;;;;9.88;4.88;;;;;;;10.82;79.32;100855.44;5005399;28;20042;-19
2023/05/13 05:40:45;;;;;;;10.10;5.85;;;;;;;10.79;77.85;100848.66;5005090;28;20037;-18
2023/05/13 05:43:11;;;;;;;13.25;4.65;;;;;;;10.90;77.56;100857.09;5005407;28;20531;-18
2023/05/13 05:45:37;;;;;;;8.70;4.82;;;;;;;10.98;78.16;100862.25;5005249;28;20061;-18
2023/05/13 05:48:04;;;;;;;10.90;5.20;;;;;;;11.15;78.83;100874.19;5020296;28;20033;-18
2023/05/13 05:50:30;;;;;;;8.00;4.78;;;;;;;11.58;75.24;100873.81;5025080;28;20034;-20
2023/05/13 05:52:56;;;;;;;8.82;5.15;;;;;;;11.71;74.28;100874.84;5024730;28;20039;-18
2023/05/13 05:55:21;;;;;;;8.05;4.40;;;;;;;11.85;73.69;100871.16;5024787;28;20022;-19
2023/05/13 05:57:47;;;;;;;8.45;4.43;;;;;;;11.96;73.23;100861.69;5024867;28;20025;-18
2023/05/13 06:00:13;;;;;;;9.07;4.68;;;;;;;11.69;74.47;100864.38;5024675;28;20040;-18
2023/05/13 06:02:39;;;;;;;9.77;4.75;;;;;;;11.65;74.50;100849.78;5024620;28;20041;-19
2023/05/13 06:05:06;;;;;;;10.30;4.40;;;;;;;11.78;74.00;100862.31;5024884;28;20021;-18
2023/05/13 06:07:31;;;;;;;9.27;4.65;;;;;;;12.06;71.70;100841.50;5024892;28;20022;-18
2023/05/13 06:09:56;;;;;;;8.48;4.68;;;;;;;12.50;69.83;100848.97;5024742;28;20025;-18
2023/05/13 06:12:22;;;;;;;8.40;4.90;;;;;;;12.67;70.36;100855.50;5024442;28;20214;-18
2023/05/13 06:14:48;;;;;;;7.80;4.70;;;;;;;13.02;72.02;100857.78;5024689;28;20115;-18
2023/05/13 06:17:13;;;;;;;7.35;5.15;;;;;;;13.07;67.91;100840.00;5024667;28;20044;-18
2023/05/13 06:19:41;;;;;;;10.30;4.72;;;;;;;12.76;69.38;100848.84;5024662;28;20026;-18
2023/05/13 06:22:08;;;;;;;8.23;4.80;;;;;;;13.06;69.66;100845.59;5024487;28;20025;-18
2023/05/13 06:24:33;;;;;;;9.57;6.10;;;;;;;12.68;71.20;100857.13;5024754;28;20038;-26
2023/05/13 06:26:59;;;;;;;9.98;6.10;;;;;;;12.74;70.91;100845.56;5024832;28;20044;-18
2023/05/13 06:29:24;;;;;;;11.02;6.25;;;;;;;13.22;70.89;100844.28;5024480;28;20029;-18
2023/05/13 06:31:49;;;;;;;12.45;6.50;;;;;;;13.53;67.72;100854.16;5024572;28;20025;-18
2023/05/13 06:34:15;;;;;;;13.68;6.47;;;;;;;13.56;67.56;100872.44;5024570;28;20032;-18
2023/05/13 06:36:42;;;;;;;12.68;6.22;;;;;;;13.57;66.49;100882.16;5024695;28;20025;-19
2023/05/13 06:39:08;;;;;;;12.88;6.43;;;;;;;13.34;67.95;100889.94;5024711;28;20121;-18
2023/05/13 06:41:34;;;;;;;9.15;5.68;;;;;;;13.53;67.97;100888.97;5027966;28;20112;-17
2023/05/13 06:43:59;;;;;;;9.32;5.28;;;;;;;13.41;68.33;100877.34;5028468;28;20646;-19
2023/05/13 06:46:24;;;;;;;10.68;5.95;;;;;;;13.84;67.37;100873.88;5012572;28;20025;-18
2023/05/13 06:48:52;;;;;;;9.18;5.88;;;;;;;13.84;66.68;100876.56;5008354;28;20461;-18
2023/05/13 06:51:18;;;;;;;16.33;6.45;;;;;;;14.07;65.04;100878.59;5008415;28;20025;-19
2023/05/13 06:53:43;;;;;;;11.10;5.85;;;;;;;14.33;65.99;100885.53;5008200;28;20445;-19
2023/05/13 06:56:08;;;;;;;9.07;5.30;;;;;;;14.29;64.69;100884.34;5008060;28;20029;-20
2023/05/13 06:58:34;;;;;;;8.82;4.72;;;;;;;14.57;63.70;100896.47;5008212;28;20022;-19
2023/05/13 07:00:59;;;;;;;9.25;5.15;;;;;;;13.95;64.92;100891.91;5008201;28;20495;-18
2023/05/13 07:03:24;;;;;;;10.70;4.78;;;;;;;14.34;65.38;100873.75;5007802;28;20022;-18
2023/05/13 07:05:50;;;;;;;6.70;4.45;;;;;;;14.34;65.99;100860.34;5008149;28;20026;-17
2023/05/13 07:08:16;;;;;;;7.63;4.00;;;;;;;14.71;62.91;100889.88;5008028;28;20026;-21
2023/05/13 07:10:42;;;;;;;8.02;4.13;;;;;;;14.68;63.90;100882.28;5007781;28;20697;-18
2023/05/13 07:13:07;;;;;;;8.70;5.00;;;;;;;14.89;63.07;100888.19;5007864;28;20106;-20
2023/05/13 07:15:33;;;;;;;8.57;4.43;;;;;;;14.79;62.72;100894.09;5007785;28;20476;-19
2023/05/13 07:17:58;;;;;;;9.82;4.43;;;;;;;14.80;60.50;100891.19;5008090;28;20034;-18
2023/05/13 07:20:25;;;;;;;8.13;4.50;;;;;;;14.64;61.43;100886.44;5007692;28;20079;-18
2023/05/13 07:22:50;;;;;;;6.15;3.63;;;;;;;15.32;59.50;100879.13;5007682;28;20034;-19
2023/05/13 07:25:17;;;;;;;7.93;4.47;;;;;;;15.36;59.62;100872.22;5007732;28;20025;-20
2023/05/13 07:27:43;;;;;;;8.32;3.80;;;;;;;15.24;55.46;100864.97;5007785;28;20036;-19
2023/05/13 07:30:10;;;;;;;6.45;3.55;;;;;;;15.35;56.05;100871.41;5007420;28;20022;-18
2023/05/13 07:32:35;;;;;;;8.80;4.20;;;;;;;15.56;56.51;100872.72;5007690;28;20041;-18
2023/05/13 07:35:02;;;;;;;8.05;4.25;;;;;;;15.81;57.42;100867.19;5007777;28;20030;-19
2023/05/13 07:37:28;;;;;;;7.25;4.35;;;;;;;15.48;58.14;100870.38;5007513;28;20036;-18
2023/05/13 07:39:53;;;;;;;10.13;4.70;;;;;;;15.92;58.62;100860.16;5007530;28;20081;-18
2023/05/13 07:42:19;;;;;;;6.90;3.65;;;;;;;15.95;55.85;100866.94;5007191;28;20706;-19
2023/05/13 07:44:44;;;;;;;7.82;3.72;;;;;;;15.92;53.32;100880.88;5007397;28;20417;-18
2023/05/13 07:47:10;;;;;;;6.80;3.70;;;;;;;16.16;55.14;100870.88;5007391;28;20049;-18
2023/05/13 07:49:35;;;;;;;7.13;3.50;;;;;;;16.43;49.77;100869.31;5007489;28;20164;-22
2023/05/13 07:52:01;;;;;;;7.28;4.03;;;;;;;16.37;52.05;100870.28;5022194;28;20091;-18
2023/05/13 07:54:27;;;;;;;7.15;3.63;;;;;;;16.47;52.82;100846.25;5007346;28;20413;-18
2023/05/13 07:56:52;;;;;;;8.32;3.30;;;;;;;16.84;50.01;100853.97;5007403;28;20026;-18
2023/05/13 07:59:18;;;;;;;5.85;3.17;;;;;;;17.04;46.45;100852.69;5007141;28;20793;-18
2023/05/13 08:01:44;;;;;;;6.35;2.72;;;;;;;16.80;44.38;100855.50;5007284;28;20135;-18
2023/05/13 08:04:09;;;;;;;5.65;3.40;;;;;;;16.84;49.24;100847.78;5007257;28;20033;-19
2023/05/13 08:06:35;;;;;;;5.40;2.80;;;;;;;16.90;47.20;100843.28;5007040;28;20030;-21
2023/05/13 08:09:00;;;;;;;6.38;2.90;;;;;;;16.82;43.84;100848.03;5007190;28;20033;-18
2023/05/13 08:11:26;;;;;;;6.45;2.50;;;;;;;16.98;44.55;100845.59;5006916;28;20054;-19
2023/05/13 08:13:52;;;;;;;5.03;2.90;;;;;;;17.03;44.34;100843.00;5006860;28;20456;-18
2023/05/13 08:16:17;;;;;;;5.43;2.40;;;;;;;17.23;44.59;100843.34;5006782;28;20519;-18
2023/05/13 08:18:43;;;;;;;6.45;2.83;;;;;;;17.56;44.52;100841.72;5021896;28;20033;-18
2023/05/13 08:21:08;;;;;;;5.15;2.80;;;;;;;17.87;43.91;100837.59;5006480;28;20513;-19
2023/05/13 08:23:35;;;;;;;6.68;3.10;;;;;;;17.83;43.00;100843.75;5006992;28;20056;-18
2023/05/13 08:26:01;;;;;;;7.38;3.00;;;;;;;18.06;45.15;100846.25;5006793;28;20163;-19
2023/05/13 08:28:28;;;;;;;4.05;2.25;;;;;;;17.53;42.02;100839.53;5006704;28;20129;-18
2023/05/13 08:30:53;;;;;;;4.10;2.67;;;;;;;17.55;44.61;100841.94;5006628;28;20033;-19
2023/05/13 08:33:19;;;;;;;4.70;2.22;;;;;;;17.63;40.84;100836.13;5006339;28;20030;-20
2023/05/13 08:35:45;;;;;;;4.90;2.15;;;;;;;18.06;41.54;100837.31;5006500;28;20113;-19
2023/05/13 08:38:11;;;;;;;6.30;2.40;;;;;;;17.84;39.94;100842.69;5006537;28;20088;-19
2023/05/13 08:40:37;;;;;;;5.00;2.13;;;;;;;17.76;42.16;100840.41;5006614;28;20030;-25
2023/05/13 08:43:05;;;;;;;6.00;2.40;;;;;;;18.01;41.01;100834.56;5006546;28;20453;-18
2023/05/13 08:45:32;;;;;;;5.20;2.33;;;;;;;18.35;42.70;100843.38;5006744;28;20079;-18
2023/05/13 08:48:00;;;;;;;3.95;2.05;;;;;;;18.85;38.93;100834.22;5006247;28;20030;-25
2023/05/13 08:50:29;;;;;;;4.93;2.70;;;;;;;19.22;38.29;100836.16;5006341;28;20018;-19
2023/05/13 08:52:58;;;;;;;6.25;2.30;;;;;;;18.86;38.30;100816.94;5005988;28;20084;-18
2023/05/13 08:55:24;;;;;;;5.80;2.42;;;;;;;19.31;37.31;100841.94;5006104;28;20022;-18
2023/05/13 08:57:50;;;;;;;7.05;2.88;;;;;;;19.36;36.19;100833.03;5006194;28;20022;-18
2023/05/13 09:00:16;;;;;;;6.63;2.13;;;;;;;19.35;38.33;100834.09;5006034;28;20018;-18
2023/05/13 09:02:42;;;;;;;6.00;2.15;;;;;;;19.31;36.92;100849.22;5005652;28;20423;-19
2023/05/13 09:05:09;;;;;;;4.30;2.00;;;;;;;19.36;34.40;100838.44;5005696;28;20100;-23
2023/05/13 09:07:36;;;;;;;5.18;2.22;;;;;;;19.68;35.53;100828.41;5006119;28;20029;-18
2023/05/13 09:10:02;;;;;;;6.32;3.10;;;;;;;19.66;35.05;100827.84;5005575;28;20034;-18
2023/05/13 09:12:44;;;;;;;3.60;2.15;;;;;;;19.89;35.77;100823.16;5005587;28;20121;-18
2023/05/13 09:15:11;;;;;;;4.38;2.30;;;;;;;19.47;37.09;100821.22;5005880;28;20088;-18
2023/05/13 09:17:38;;;;;;;5.60;2.10;;;;;;;20.19;35.98;100821.69;5006061;28;20026;-19
2023/05/13 09:20:24;;;;;;;6.33;2.03;;;;;;;19.96;36.08;100829.16;5005785;28;20030;-18
2023/05/13 09:22:59;;;;;;;4.05;2.17;;;;;;;20.03;37.53;100824.31;5005626;28;20272;-19
2023/05/13 09:25:26;;;;;;;4.22;2.38;;;;;;;20.03;37.32;100829.72;5005839;28;20041;-20
2023/05/13 09:27:57;;;;;;;4.63;2.28;;;;;;;20.71;36.64;100822.66;5005591;28;20037;-19
2023/05/13 09:30:23;;;;;;;4.13;2.20;;;;;;;20.55;35.97;100825.28;5005500;28;20038;-18
2023/05/13 09:33:20;;;;;;;4.93;2.03;;;;;;;20.35;35.82;100815.25;5005580;28;20048;-19
2023/05/13 09:35:53;;;;;;;2.78;2.08;;;;;;;20.01;37.59;100815.63;5005553;28;20049;-19
2023/05/13 09:38:27;;;;;;;6.25;2.83;;;;;;;20.18;37.63;100799.16;5005211;28;20046;-18
2023/05/13 09:40:57;;;;;;;4.78;2.30;;;;;;;20.16;36.05;100814.06;5005571;28;20030;-18
2023/05/13 09:43:25;;;;;;;4.30;2.00;;;;;;;20.47;37.29;100801.44;5005195;28;20037;-18
2023/05/13 09:45:55;;;;;;;3.38;2.20;;;;;;;20.82;33.64;100808.88;5005362;28;20034;-18
2023/05/13 09:48:25;;;;;;;4.35;1.90;;;;;;;21.11;34.42;100802.94;5005307;28;20508;-19
2023/05/13 09:50:52;;;;;;;4.45;2.00;;;;;;;21.20;35.19;100804.00;5005080;28;20120;-20
2023/05/13 09:53:20;;;;;;;4.07;2.42;;;;;;;20.58;34.71;100778.75;5005383;28;20432;-20
2023/05/13 09:55:54;;;;;;;5.43;2.10;;;;;;;21.14;35.92;100786.09;5005187;28;20033;-18
2023/05/13 09:58:21;;;;;;;3.42;1.83;;;;;;;20.38;35.32;100798.44;5005631;28;20080;-19
2023/05/13 10:00:47;;;;;;;3.45;1.80;;;;;;;20.74;35.04;100793.13;5005296;28;20469;-19
2023/05/13 10:03:13;;;;;;;4.53;1.80;;;;;;;20.78;35.34;100802.34;5004829;28;20037;-19
2023/05/13 10:05:40;;;;;;;4.55;1.95;;;;;;;21.00;34.48;100795.84;5004230;28;20121;-19
2023/05/13 10:08:10;;;;;;;3.88;1.90;;;;;;;21.17;34.79;100809.97;5005515;28;20105;-19
2023/05/13 10:10:37;;;;;;;4.82;2.25;;;;;;;21.68;32.52;100809.13;5005153;28;20026;-18
2023/05/13 10:13:09;;;;;;;3.55;2.00;;;;;;;21.45;31.52;100792.34;5005329;28;20022;-19
2023/05/13 10:15:36;;;;;;;4.35;1.95;;;;;;;22.19;32.65;100808.13;5009080;28;20461;-18
2023/05/13 10:18:01;;;;;;;4.85;1.70;;;;;;;21.76;30.87;100811.28;5004534;28;20046;-18
2023/05/13 10:20:27;;;;;;;4.68;2.08;;;;;;;21.78;31.29;100805.56;5007950;28;20205;-20
2023/05/13 10:22:54;;;;;;;4.60;2.00;;;;;;;22.32;29.31;100810.28;5008005;28;20061;-18
2023/05/13 10:25:20;;;;;;;3.35;1.83;;;;;;;21.98;30.82;100813.66;5008650;28;20029;-18
2023/05/13 10:27:46;;;;;;;2.85;1.90;;;;;;;22.59;29.52;100800.91;5008247;28;20565;-18
2023/05/13 10:30:13;;;;;;;4.90;2.15;;;;;;;22.97;29.99;100801.19;5008928;28;20022;-18
2023/05/13 10:32:39;;;;;;;2.88;1.73;;;;;;;22.90;29.46;100800.69;5007174;28;20060;-19
2023/05/13 10:35:11;;;;;;;3.38;1.70;;;;;;;22.74;30.78;100800.81;5008640;28;20505;-19
2023/05/13 10:37:59;;;;;;;3.67;1.83;;;;;;;22.70;30.23;100791.59;5008786;28;20075;-20
2023/05/13 10:40:40;;;;;;;4.05;1.80;;;;;;;22.44;30.45;100791.75;5008770;28;20019;-20
2023/05/13 10:43:24;;;;;;;4.75;1.80;;;;;;;23.11;30.41;100791.31;5008499;28;20026;-20
2023/05/13 10:45:58;;;;;;;2.78;2.05;;;;;;;22.39;30.89;100799.94;5008516;28;20030;-18
2023/05/13 10:48:24;;;;;;;3.17;1.90;;;;;;;22.34;30.00;100789.09;5008441;28;20070;-18
2023/05/13 10:50:51;;;;;;;3.40;1.95;;;;;;;22.46;30.44;100792.28;5008286;28;20119;-18
2023/05/13 10:53:47;;;;;;;3.00;1.77;;;;;;;22.29;31.14;100780.94;5008170;28;20065;-20
2023/05/13 10:56:13;;;;;;;3.88;1.92;;;;;;;22.35;30.37;100777.13;5007781;28;20045;-19
2023/05/13 10:58:39;;;;;;;3.88;1.90;;;;;;;22.63;32.36;100772.88;5008261;28;20037;-18
2023/05/13 11:01:14;;;;;;;9.95;2.78;;;;;;;22.89;31.00;100755.56;5008278;28;20030;-18
2023/05/13 11:03:40;;;;;;;5.25;2.03;;;;;;;23.53;29.69;100770.75;5008294;28;20522;-19
2023/05/13 11:06:18;;;;;;;4.03;2.08;;;;;;;23.30;30.10;100760.66;5008082;28;20041;-19
2023/05/13 11:08:48;;;;;;;5.18;2.15;;;;;;;23.75;30.41;100769.44;5008201;28;20107;-19
2023/05/13 11:11:23;;;;;;;3.83;2.10;;;;;;;23.89;29.65;100778.56;5007602;28;20046;-19
2023/05/13 11:13:49;;;;;;;3.70;2.17;;;;;;;23.87;31.31;100769.88;5008078;28;20030;-19
2023/05/13 11:16:15;;;;;;;4.03;2.08;;;;;;;23.84;28.81;100778.63;5007675;28;20034;-19
2023/05/13 11:18:41;;;;;;;4.32;2.15;;;;;;;23.52;31.89;100771.03;5008170;28;20080;-24
2023/05/13 11:21:07;;;;;;;2.72;2.10;;;;;;;23.67;29.07;100777.13;5008051;28;20037;-18
2023/05/13 11:24:09;;;;;;;4.43;1.92;;;;;;;23.78;29.14;100775.16;5007856;28;20057;-19
2023/05/13 11:26:45;;;;;;;4.60;2.10;;;;;;;24.67;29.43;100762.81;5006653;28;20100;-25